MPDA/DAV METAR and TAF weather

Enter ICAO airport designator
Station Type Date Time Source
MPDA METAR 2019/02/16 03:00 UTC NOAA

MPDA 160300Z 09002KT CAVOK 26/24 Q1011


Station Type Date Time Source
MPDA Decoded METAR 2019/02/16 03:00 UTC NOAA

David, Panama (MPDA) 08-24N 082-25W 26M
Feb 15, 2019 - 10:00 PM EST / 2019.02.16 0300 UTC
Wind: from the E (090 degrees) at 2 MPH (2 KT):0
Visibility: greater than 7 mile(s):0
Temperature: 78 F (26 C)
Dew Point: 75 F (24 C)
Relative Humidity: 88%
Pressure (altimeter): 29.85 in. Hg (1011 hPa)
ob: MPDA 160300Z 09002KT CAVOK 26/24 Q1011
cycle: 3

Station Type Date Time Source
MPDA TAF 2019/02/16 00:12 UTC NOAA

TAF
AMD TAF
AMD MPDA 160300Z 1600/1612 CNL


Example: see airport list